Time;durP1;ratioP1;P1;durP2;ratioP2;P2;SDS_P1;SDS_P2;PMS_P1;PMS_P2;Temp;Humidity;BMP_temperature;BMP_pressure;BME280_temperature;BME280_humidity;BME280_pressure;Samples;Min_cycle;Max_cycle;Signal;HPM_P1;HPM_P2
2023/12/15 00:01:03;;;;;;;0.93;0.93;;;;;;;8.64;nan;-23738.94;5030883;28;20225;-64
2023/12/15 00:03:30;;;;;;;1.20;1.20;;;;;;;8.22;nan;-24044.81;5031452;28;20278;-64
2023/12/15 00:05:57;;;;;;;1.00;1.00;;;;;;;8.28;nan;-24046.38;5031033;28;20201;-64
2023/12/15 00:08:23;;;;;;;1.10;1.10;;;;;;;8.34;nan;-24048.22;5030957;28;20262;-64
2023/12/15 00:10:49;;;;;;;0.90;0.90;;;;;;;8.55;nan;-23736.31;5030732;28;20701;-64
2023/12/15 00:13:14;;;;;;;1.10;1.10;;;;;;;8.27;nan;-23728.78;5030830;28;20167;-64
2023/12/15 00:15:39;;;;;;;1.00;1.00;;;;;;;8.48;nan;-23734.50;5031320;28;20186;-65
2023/12/15 00:18:05;;;;;;;1.15;1.15;;;;;;;8.54;nan;-23736.16;5030744;28;20206;-65
2023/12/15 00:20:30;;;;;;;1.08;1.08;;;;;;;8.27;nan;-23728.66;5030689;28;20646;-64
2023/12/15 00:22:55;;;;;;;0.90;0.90;;;;;;;8.40;nan;-23414.75;5030790;28;20210;-64
2023/12/15 00:25:21;;;;;;;1.10;1.10;;;;;;;8.52;nan;-23417.88;5030756;28;20529;-64
2023/12/15 00:27:48;;;;;;;1.10;1.10;;;;;;;8.49;nan;-23734.78;5030591;28;20214;-64
2023/12/15 00:30:14;;;;;;;1.10;1.10;;;;;;;8.49;nan;-23417.19;5031134;28;20249;-64
2023/12/15 00:32:39;;;;;;;1.00;1.00;;;;;;;8.50;nan;-23417.31;5031087;28;20229;-65
2023/12/15 00:35:05;;;;;;;1.00;1.00;;;;;;;8.53;nan;-23100.66;5029421;28;20187;-64
2023/12/15 00:37:30;;;;;;;1.00;1.00;;;;;;;8.58;nan;-22784.28;5030836;28;20218;-63
2023/12/15 00:39:56;;;;;;;1.10;1.10;;;;;;;8.35;nan;-22778.25;5030320;28;20256;-65
2023/12/15 00:42:21;;;;;;;1.00;1.00;;;;;;;8.45;nan;-22463.22;5030605;28;20172;-64
2023/12/15 00:44:46;;;;;;;1.00;1.00;;;;;;;8.33;nan;-22142.53;5030821;28;20175;-64
2023/12/15 00:47:14;;;;;;;1.00;1.00;;;;;;;8.47;nan;-22463.75;5034052;28;20333;-63
2023/12/15 00:49:39;;;;;;;1.10;1.10;;;;;;;8.61;nan;-22785.06;5034220;28;20655;-65
2023/12/15 00:52:05;;;;;;;1.00;1.00;;;;;;;8.53;nan;-22465.28;5034378;28;20176;-64
2023/12/15 00:54:30;;;;;;;1.10;1.10;;;;;;;8.46;nan;-22781.00;5034375;28;20217;-63
2023/12/15 00:56:55;;;;;;;1.10;1.10;;;;;;;8.52;nan;-22782.72;5035396;28;20198;-63
2023/12/15 00:59:21;;;;;;;1.10;1.10;;;;;;;8.52;nan;-22782.72;5032955;28;20207;-64
2023/12/15 01:01:46;;;;;;;0.90;0.90;;;;;;;8.56;nan;-22783.75;5034172;28;20216;-64
2023/12/15 01:04:12;;;;;;;1.20;1.20;;;;;;;8.33;nan;-22777.88;5034252;28;20217;-65
2023/12/15 01:06:37;;;;;;;1.10;1.10;;;;;;;8.45;nan;-22780.88;5034023;28;20172;-64
2023/12/15 01:09:03;;;;;;;1.00;1.00;;;;;;;8.48;nan;-22781.53;5033898;28;20171;-64
2023/12/15 01:11:28;;;;;;;1.20;1.20;;;;;;;8.36;nan;-22461.03;5033647;28;20171;-63
2023/12/15 01:13:53;;;;;;;1.15;1.15;;;;;;;8.60;nan;-22467.09;5033830;28;20171;-64
2023/12/15 01:16:19;;;;;;;1.00;1.00;;;;;;;8.36;nan;-22460.91;5033746;28;20665;-64
2023/12/15 01:18:44;;;;;;;0.95;0.95;;;;;;;8.32;nan;-22459.88;5033654;28;20273;-63
2023/12/15 01:21:09;;;;;;;1.10;1.10;;;;;;;8.42;nan;-22462.47;5033763;28;20685;-63
2023/12/15 01:23:38;;;;;;;1.10;1.10;;;;;;;8.41;nan;-22779.84;5033914;28;20291;-64
2023/12/15 01:26:04;;;;;;;1.10;1.10;;;;;;;8.31;nan;-22777.22;5033413;28;20175;-63
2023/12/15 01:28:29;;;;;;;1.10;1.10;;;;;;;8.34;nan;-23095.56;5034133;28;20241;-64
2023/12/15 01:30:54;;;;;;;1.20;1.10;;;;;;;8.20;nan;-23091.94;5033783;28;20227;-65
2023/12/15 01:33:20;;;;;;;1.17;1.17;;;;;;;8.16;nan;-23408.31;5033694;28;20262;-63
2023/12/15 01:35:45;;;;;;;1.10;1.10;;;;;;;8.33;nan;-23412.97;5034099;28;20175;-64
2023/12/15 01:38:11;;;;;;;1.10;1.10;;;;;;;8.32;nan;-23412.56;5033635;28;20175;-63
2023/12/15 01:40:36;;;;;;;1.10;1.10;;;;;;;8.40;nan;-23414.75;5033326;28;20199;-64
2023/12/15 01:43:02;;;;;;;1.10;1.10;;;;;;;8.14;nan;-23407.78;5033833;28;20175;-64
2023/12/15 01:45:28;;;;;;;1.10;1.10;;;;;;;8.31;nan;-23412.28;5033161;28;20241;-63
2023/12/15 01:47:54;;;;;;;1.10;1.10;;;;;;;8.22;nan;-23409.81;5033262;28;20184;-63
2023/12/15 01:50:19;;;;;;;1.10;1.10;;;;;;;8.16;nan;-23408.31;5033385;28;20615;-63
2023/12/15 01:52:45;;;;;;;1.10;1.10;;;;;;;8.28;nan;-23411.47;5033327;28;20206;-65
2023/12/15 01:55:10;;;;;;;1.00;1.00;;;;;;;8.32;nan;-23412.69;5033427;28;20174;-64
2023/12/15 01:57:36;;;;;;;1.10;1.10;;;;;;;8.03;nan;-23404.78;5031882;28;20536;-63
2023/12/15 02:00:06;;;;;;;1.00;1.00;;;;;;;8.11;nan;-23406.81;5033211;28;20260;-63
2023/12/15 02:02:33;;;;;;;1.08;1.08;;;;;;;8.35;nan;-23095.97;5033010;28;20163;-64
2023/12/15 02:04:58;;;;;;;1.10;1.10;;;;;;;8.12;nan;-23407.09;5032788;28;20685;-64
2023/12/15 02:07:24;;;;;;;1.00;1.00;;;;;;;8.36;nan;-23413.66;5032450;28;20267;-63
2023/12/15 02:09:49;;;;;;;1.10;1.10;;;;;;;8.17;nan;-23408.59;5032572;28;20682;-64
2023/12/15 02:12:14;;;;;;;1.08;1.08;;;;;;;8.10;nan;-23406.69;5032663;28;20180;-65
2023/12/15 02:14:43;;;;;;;1.10;1.10;;;;;;;8.10;nan;-23724.06;5032384;28;20554;-64
2023/12/15 02:17:09;;;;;;;1.20;1.20;;;;;;;8.12;nan;-23724.63;5032539;28;20171;-64
2023/12/15 02:19:35;;;;;;;1.02;1.02;;;;;;;8.39;nan;-23732.00;5032466;28;20195;-63
2023/12/15 02:22:00;;;;;;;1.00;1.00;;;;;;;8.07;nan;-23723.22;5032164;28;20321;-64
2023/12/15 02:24:26;;;;;;;1.00;1.00;;;;;;;7.97;nan;-24037.88;5032241;28;20179;-66
2023/12/15 02:26:51;;;;;;;1.05;1.05;;;;;;;8.00;nan;-24038.72;5032145;28;20168;-64
2023/12/15 02:29:17;;;;;;;1.10;1.10;;;;;;;8.16;nan;-24042.97;5032259;28;20175;-63
2023/12/15 02:31:42;;;;;;;1.00;1.00;;;;;;;8.12;nan;-24041.97;5032215;28;20233;-63
2023/12/15 02:34:07;;;;;;;1.00;1.00;;;;;;;7.90;nan;-24035.75;5032798;28;20180;-64
2023/12/15 02:36:33;;;;;;;1.00;1.00;;;;;;;7.88;nan;-24035.31;5032325;28;20199;-63
2023/12/15 02:38:58;;;;;;;1.00;1.00;;;;;;;8.00;nan;-24038.72;5032206;28;20235;-64
2023/12/15 02:41:24;;;;;;;1.10;1.10;;;;;;;8.08;nan;-24040.72;5031115;28;20306;-63
2023/12/15 02:43:49;;;;;;;1.10;1.10;;;;;;;7.89;nan;-24035.63;5032041;28;20267;-63
2023/12/15 02:46:14;;;;;;;1.20;1.20;;;;;;;8.02;nan;-24039.00;5032575;28;20658;-63
2023/12/15 02:48:40;;;;;;;1.10;1.10;;;;;;;7.97;nan;-24037.72;5032091;28;20179;-64
2023/12/15 02:51:06;;;;;;;1.20;1.20;;;;;;;7.88;nan;-24035.19;5032108;28;20553;-64
2023/12/15 02:53:31;;;;;;;1.10;1.10;;;;;;;7.83;nan;-24033.91;5032045;28;20171;-65
2023/12/15 02:55:56;;;;;;;1.83;1.40;;;;;;;7.95;nan;-24037.16;5032114;28;20171;-64
2023/12/15 02:58:22;;;;;;;1.02;1.02;;;;;;;7.92;nan;-24036.47;5032054;28;20184;-64
2023/12/15 03:00:47;;;;;;;1.20;1.20;;;;;;;8.03;nan;-23721.97;5032050;28;20204;-64
2023/12/15 03:03:13;;;;;;;1.00;1.00;;;;;;;7.97;nan;-23720.44;5033708;28;20172;-63
2023/12/15 03:05:38;;;;;;;1.00;1.00;;;;;;;7.87;nan;-23717.66;5032065;28;20637;-63
2023/12/15 03:08:04;;;;;;;0.90;0.90;;;;;;;7.92;nan;-23719.19;5031394;28;20305;-64
2023/12/15 03:10:30;;;;;;;1.10;1.10;;;;;;;7.88;nan;-23718.09;5031977;28;20193;-64
2023/12/15 03:12:55;;;;;;;1.00;1.00;;;;;;;7.95;nan;-23719.91;5031750;28;20208;-65
2023/12/15 03:15:20;;;;;;;1.10;1.10;;;;;;;8.23;nan;-23410.09;5030797;28;20219;-64
2023/12/15 03:17:46;;;;;;;0.90;0.90;;;;;;;7.87;nan;-23717.66;5031570;28;20602;-63
2023/12/15 03:20:11;;;;;;;1.20;1.20;;;;;;;8.10;nan;-23724.06;5030149;28;20195;-63
2023/12/15 03:22:37;;;;;;;1.10;1.10;;;;;;;7.97;nan;-23720.44;5031230;28;20694;-64
2023/12/15 03:25:06;;;;;;;1.10;1.10;;;;;;;8.19;nan;-23726.56;5031653;28;20168;-65
2023/12/15 03:27:32;;;;;;;1.00;1.00;;;;;;;8.06;nan;-23722.81;5031897;28;20175;-65
2023/12/15 03:29:57;;;;;;;1.20;1.20;;;;;;;8.04;nan;-23722.41;5031315;28;20239;-64
2023/12/15 03:32:23;;;;;;;1.00;1.00;;;;;;;8.08;nan;-23723.50;5031679;28;20211;-64
2023/12/15 03:34:48;;;;;;;1.00;1.00;;;;;;;7.90;nan;-23718.66;5031348;28;20199;-63
2023/12/15 03:37:14;;;;;;;1.27;1.20;;;;;;;7.98;nan;-24038.03;5031123;28;20605;-64
2023/12/15 03:39:39;;;;;;;1.10;1.10;;;;;;;7.85;nan;-24034.47;5031318;28;20211;-65
2023/12/15 03:42:06;;;;;;;1.10;1.10;;;;;;;7.87;nan;-24034.91;5031287;28;20596;-64
2023/12/15 03:44:39;;;;;;;1.00;1.00;;;;;;;7.75;nan;-24033.38;5031396;28;20189;-63
2023/12/15 03:47:06;;;;;;;1.20;1.20;;;;;;;7.80;nan;-24034.78;5031453;28;20159;-63
2023/12/15 03:49:32;;;;;;;1.30;1.20;;;;;;;7.74;nan;-24033.06;5031247;28;20270;-63
2023/12/15 03:51:57;;;;;;;1.00;1.00;;;;;;;7.81;nan;-24035.06;5031213;28;20164;-63
2023/12/15 03:54:23;;;;;;;1.07;1.07;;;;;;;7.78;nan;-24034.34;5030859;28;20179;-64
2023/12/15 03:56:57;;;;;;;1.10;1.10;;;;;;;7.81;nan;-24035.22;5031508;28;20179;-65
2023/12/15 03:59:22;;;;;;;0.90;0.90;;;;;;;7.69;nan;-24031.81;5030998;28;20205;-64
2023/12/15 04:01:48;;;;;;;1.07;1.07;;;;;;;7.74;nan;-24033.22;5030716;28;20257;-63
2023/12/15 04:04:13;;;;;;;1.10;1.10;;;;;;;7.55;nan;-24027.84;5030701;28;20241;-63
2023/12/15 04:06:39;;;;;;;1.00;1.00;;;;;;;7.45;nan;-24025.13;5030887;28;20622;-63
2023/12/15 04:09:04;;;;;;;1.10;1.10;;;;;;;7.63;nan;-24029.97;5030830;28;20179;-64
2023/12/15 04:11:30;;;;;;;1.10;1.10;;;;;;;7.48;nan;-24025.84;5030957;28;20187;-63
2023/12/15 04:13:55;;;;;;;1.00;1.00;;;;;;;7.34;nan;-24022.03;5030552;28;20537;-64
2023/12/15 04:16:20;;;;;;;1.07;1.07;;;;;;;7.42;nan;-24024.16;5030627;28;20182;-64
2023/12/15 04:18:46;;;;;;;1.20;1.20;;;;;;;7.48;nan;-24026.00;5030403;28;20225;-64
2023/12/15 04:21:11;;;;;;;1.13;1.13;;;;;;;7.40;nan;-24023.59;5031195;28;20200;-64
2023/12/15 04:23:36;;;;;;;1.00;1.00;;;;;;;7.59;nan;-24028.81;5034924;28;20631;-63
2023/12/15 04:26:02;;;;;;;1.10;1.10;;;;;;;7.58;nan;-24028.69;5035107;28;20189;-63
2023/12/15 04:28:27;;;;;;;1.20;1.20;;;;;;;7.48;nan;-24025.84;5034851;28;20237;-63
2023/12/15 04:30:53;;;;;;;0.90;0.90;;;;;;;7.54;nan;-24027.56;5035151;28;20214;-65
2023/12/15 04:33:18;;;;;;;1.10;1.10;;;;;;;7.50;nan;-24026.41;5034632;28;20175;-64
2023/12/15 04:35:44;;;;;;;1.10;1.10;;;;;;;7.62;nan;-24029.81;5035069;28;20187;-63
2023/12/15 04:38:09;;;;;;;1.10;1.10;;;;;;;7.55;nan;-24027.84;5034729;28;20175;-63
2023/12/15 04:40:34;;;;;;;1.10;1.10;;;;;;;7.52;nan;-24026.97;5034609;28;20218;-63
2023/12/15 04:43:00;;;;;;;1.10;1.10;;;;;;;7.31;nan;-24021.03;5034645;28;20552;-63
2023/12/15 04:45:25;;;;;;;1.30;1.30;;;;;;;7.63;nan;-24030.09;5033219;28;20267;-64
2023/12/15 04:47:51;;;;;;;1.40;1.30;;;;;;;7.67;nan;-24031.25;5033171;28;20602;-64
2023/12/15 04:50:17;;;;;;;1.00;1.00;;;;;;;7.53;nan;-24027.41;5033175;28;20570;-64
2023/12/15 04:52:42;;;;;;;1.10;1.10;;;;;;;7.43;nan;-24024.56;5034567;28;20275;-64
2023/12/15 04:55:08;;;;;;;1.23;1.20;;;;;;;7.46;nan;-24025.44;5034508;28;20174;-63
2023/12/15 04:57:33;;;;;;;1.33;1.30;;;;;;;7.40;nan;-24023.72;5034569;28;20171;-63
2023/12/15 04:59:59;;;;;;;1.10;1.10;;;;;;;7.32;nan;-24021.47;5034009;28;20501;-63
2023/12/15 05:02:24;;;;;;;1.13;1.13;;;;;;;7.42;nan;-24024.16;5034190;28;20209;-64
2023/12/15 05:04:49;;;;;;;1.40;1.30;;;;;;;7.38;nan;-24023.00;5033753;28;20175;-63
2023/12/15 05:07:15;;;;;;;1.10;1.10;;;;;;;7.12;nan;-24015.78;5034210;28;20183;-63
2023/12/15 05:09:40;;;;;;;1.10;1.10;;;;;;;7.32;nan;-24021.31;5035202;28;20627;-65
2023/12/15 05:12:08;;;;;;;1.10;1.10;;;;;;;7.09;nan;-24014.94;5033893;28;20183;-63
2023/12/15 05:14:33;;;;;;;0.93;0.93;;;;;;;7.12;nan;-24015.66;5033703;28;20226;-63
2023/12/15 05:16:59;;;;;;;1.10;1.10;;;;;;;7.06;nan;-24014.22;5033903;28;20199;-63
2023/12/15 05:19:24;;;;;;;1.60;1.50;;;;;;;7.38;nan;-24023.00;5033298;28;20214;-64
2023/12/15 05:21:49;;;;;;;1.13;1.13;;;;;;;6.81;nan;-24007.13;5033818;28;20520;-64
2023/12/15 05:24:15;;;;;;;1.20;1.20;;;;;;;7.44;nan;-24024.88;5033927;28;20179;-64
2023/12/15 05:26:41;;;;;;;1.00;1.00;;;;;;;7.22;nan;-24018.63;5033566;28;20214;-64
2023/12/15 05:29:06;;;;;;;1.00;1.00;;;;;;;7.30;nan;-24020.75;5033625;28;20591;-62
2023/12/15 05:31:32;;;;;;;1.10;1.10;;;;;;;7.34;nan;-24021.88;5032403;28;20566;-64
2023/12/15 05:33:57;;;;;;;1.40;1.30;;;;;;;7.43;nan;-24024.44;5033225;28;20220;-65
2023/12/15 05:36:22;;;;;;;1.20;1.20;;;;;;;7.29;nan;-24020.47;5033441;28;20268;-64
2023/12/15 05:38:49;;;;;;;1.10;1.10;;;;;;;7.52;nan;-24026.97;5033094;28;20209;-66
2023/12/15 05:41:14;;;;;;;1.17;1.17;;;;;;;7.24;nan;-24019.03;5033293;28;20705;-64
2023/12/15 05:43:40;;;;;;;1.20;1.20;;;;;;;6.79;nan;-24006.56;5033576;28;20264;-65
2023/12/15 05:46:06;;;;;;;1.10;1.10;;;;;;;7.29;nan;-24020.47;5032871;28;20236;-64
2023/12/15 05:48:32;;;;;;;1.10;1.10;;;;;;;7.17;nan;-24017.06;5032865;28;20534;-66
2023/12/15 05:50:57;;;;;;;1.07;1.07;;;;;;;7.31;nan;-24021.16;5032608;28;20179;-66
2023/12/15 05:53:22;;;;;;;1.00;1.00;;;;;;;7.58;nan;-24028.69;5033082;28;20195;-65
2023/12/15 05:55:48;;;;;;;0.90;0.90;;;;;;;7.48;nan;-24026.00;5033149;28;20584;-67
2023/12/15 05:58:14;;;;;;;1.10;1.10;;;;;;;7.43;nan;-24024.44;5033161;28;20163;-65
2023/12/15 06:00:39;;;;;;;1.07;1.07;;;;;;;7.20;nan;-24017.91;5030453;28;20264;-65
2023/12/15 06:03:04;;;;;;;1.10;1.10;;;;;;;7.16;nan;-24016.91;5022972;28;20304;-65
2023/12/15 06:05:34;;;;;;;1.20;1.20;;;;;;;7.26;nan;-24019.63;5019426;28;20188;-67
2023/12/15 06:08:00;;;;;;;1.00;1.00;;;;;;;7.47;nan;-24025.56;5020895;28;20623;-66
2023/12/15 06:10:26;;;;;;;1.10;1.10;;;;;;;7.19;nan;-24017.78;5022235;28;20531;-66
2023/12/15 06:12:51;;;;;;;1.07;1.07;;;;;;;7.29;nan;-24020.59;5021091;28;20301;-66
2023/12/15 06:15:17;;;;;;;1.10;1.10;;;;;;;7.33;nan;-24021.75;5010584;28;20176;-64
2023/12/15 06:17:42;;;;;;;1.20;1.20;;;;;;;7.51;nan;-24026.84;5010809;28;20279;-63
2023/12/15 06:20:08;;;;;;;1.10;1.10;;;;;;;7.29;nan;-24020.47;5011389;28;20204;-64
2023/12/15 06:22:34;;;;;;;1.07;1.07;;;;;;;7.24;nan;-24019.03;5015753;28;20203;-64
2023/12/15 06:24:59;;;;;;;1.20;1.20;;;;;;;7.39;nan;-24023.44;5023699;28;20317;-64
2023/12/15 06:27:25;;;;;;;1.40;1.30;;;;;;;7.34;nan;-24021.88;5020459;28;20267;-64
2023/12/15 06:29:50;;;;;;;1.00;1.00;;;;;;;7.52;nan;-24027.13;5020163;28;20206;-64
2023/12/15 06:32:15;;;;;;;1.10;1.10;;;;;;;7.36;nan;-24022.59;5015454;28;20647;-66
2023/12/15 06:34:44;;;;;;;1.00;1.00;;;;;;;7.54;nan;-24027.56;5012959;28;20176;-67
2023/12/15 06:37:09;;;;;;;0.90;0.90;;;;;;;7.25;nan;-24019.47;5011493;28;20180;-66
2023/12/15 06:39:35;;;;;;;1.47;1.37;;;;;;;7.35;nan;-24022.31;5012459;28;20250;-65
2023/12/15 06:42:02;;;;;;;1.40;1.30;;;;;;;7.52;nan;-24027.13;5012161;28;20176;-62
2023/12/15 06:44:28;;;;;;;1.17;1.17;;;;;;;7.60;nan;-24029.09;5011402;28;20255;-64
2023/12/15 06:46:53;;;;;;;1.10;1.10;;;;;;;7.49;nan;-24026.28;5012064;28;20218;-68
2023/12/15 06:49:19;;;;;;;1.43;1.33;;;;;;;7.67;nan;-24031.25;5011989;28;20643;-64
2023/12/15 06:51:45;;;;;;;1.47;1.40;;;;;;;7.59;nan;-24028.97;5012212;28;20523;-64
2023/12/15 06:54:11;;;;;;;1.10;1.10;;;;;;;7.66;nan;-24030.81;5012275;28;20206;-64
2023/12/15 06:56:39;;;;;;;1.00;1.00;;;;;;;7.44;nan;-24024.88;5012102;28;20256;-64
2023/12/15 06:59:04;;;;;;;1.00;1.00;;;;;;;7.45;nan;-24025.00;5012066;28;20254;-64
2023/12/15 07:01:30;;;;;;;1.07;1.07;;;;;;;7.61;nan;-24029.41;5012186;28;20180;-65
2023/12/15 07:03:55;;;;;;;0.93;0.93;;;;;;;7.67;nan;-24031.25;5011572;28;20200;-65
2023/12/15 07:06:21;;;;;;;0.97;0.97;;;;;;;7.46;nan;-24025.28;5011934;28;20176;-64
2023/12/15 07:08:53;;;;;;;1.30;1.20;;;;;;;7.67;nan;-24031.09;5012180;28;20211;-64
2023/12/15 07:11:19;;;;;;;0.90;0.90;;;;;;;7.79;nan;-24034.50;5011951;28;20560;-66
2023/12/15 07:13:45;;;;;;;1.40;1.30;;;;;;;7.75;nan;-24033.50;5011731;28;20262;-64
2023/12/15 07:16:12;;;;;;;1.00;1.00;;;;;;;7.80;nan;-24034.91;5012697;28;20172;-65
2023/12/15 07:18:37;;;;;;;1.00;1.00;;;;;;;7.58;nan;-24028.53;5011536;28;20187;-65
2023/12/15 07:21:03;;;;;;;1.03;1.03;;;;;;;7.67;nan;-24031.25;5011527;28;20223;-65
2023/12/15 07:23:28;;;;;;;1.17;1.10;;;;;;;7.57;nan;-24028.25;5011317;28;20582;-65
2023/12/15 07:25:53;;;;;;;1.03;1.03;;;;;;;7.52;nan;-24026.97;5011867;28;20187;-65
2023/12/15 07:28:19;;;;;;;1.30;1.20;;;;;;;7.51;nan;-24026.69;5011204;28;20212;-64
2023/12/15 07:30:44;;;;;;;1.20;1.20;;;;;;;7.75;nan;-24033.38;5011522;28;20304;-64
2023/12/15 07:33:09;;;;;;;1.00;1.00;;;;;;;7.71;nan;-24032.38;5010886;28;20630;-65
2023/12/15 07:35:35;;;;;;;0.97;0.97;;;;;;;7.68;nan;-24031.38;5011204;28;20602;-64
2023/12/15 07:38:01;;;;;;;1.10;1.10;;;;;;;7.80;nan;-24034.78;5011183;28;20172;-64
2023/12/15 07:40:26;;;;;;;1.10;1.10;;;;;;;7.70;nan;-24032.09;5011237;28;20307;-64
2023/12/15 07:42:52;;;;;;;0.93;0.93;;;;;;;7.68;nan;-24031.38;5011181;28;20179;-63
2023/12/15 07:45:17;;;;;;;1.03;1.03;;;;;;;7.68;nan;-24031.53;5011162;28;20615;-63
2023/12/15 07:47:42;;;;;;;1.20;1.10;;;;;;;7.66;nan;-24030.81;5011261;28;20655;-64
2023/12/15 07:50:08;;;;;;;1.10;1.10;;;;;;;7.67;nan;-24031.25;5011047;28;20172;-64
2023/12/15 07:52:34;;;;;;;1.13;1.13;;;;;;;7.70;nan;-24031.94;5011423;28;20247;-65
2023/12/15 07:54:59;;;;;;;1.50;1.40;;;;;;;7.37;nan;-24022.72;5010752;28;20258;-65
2023/12/15 07:57:25;;;;;;;1.07;0.97;;;;;;;7.48;nan;-24025.84;5024400;28;20561;-63
2023/12/15 07:59:50;;;;;;;1.00;1.00;;;;;;;7.68;nan;-24031.38;5030482;28;20207;-63
2023/12/15 08:02:19;;;;;;;0.97;0.97;;;;;;;7.62;nan;-24029.81;5031239;28;20244;-64
2023/12/15 08:04:45;;;;;;;1.00;1.00;;;;;;;7.74;nan;-24033.22;5030898;28;20175;-64
2023/12/15 08:07:10;;;;;;;1.20;0.97;;;;;;;7.59;nan;-24028.81;5030628;28;20187;-63
2023/12/15 08:09:36;;;;;;;1.03;1.03;;;;;;;7.52;nan;-24026.97;5030211;28;20207;-64
2023/12/15 08:12:01;;;;;;;1.23;1.20;;;;;;;7.54;nan;-24027.56;5030573;28;20182;-64
2023/12/15 08:14:27;;;;;;;1.17;1.17;;;;;;;7.76;nan;-24033.78;5030306;28;20183;-64
2023/12/15 08:16:53;;;;;;;1.20;1.20;;;;;;;7.68;nan;-24031.53;5031782;28;20183;-64
2023/12/15 08:19:19;;;;;;;1.40;1.30;;;;;;;7.62;nan;-24029.81;5032399;28;20202;-65
2023/12/15 08:21:45;;;;;;;1.40;1.33;;;;;;;7.70;nan;-24031.94;5030735;28;20168;-65
2023/12/15 08:24:10;;;;;;;1.00;1.00;;;;;;;7.69;nan;-24031.66;5030414;28;20163;-64
2023/12/15 08:26:36;;;;;;;1.00;1.00;;;;;;;7.59;nan;-24028.97;5030475;28;20175;-64
2023/12/15 08:29:01;;;;;;;1.10;1.10;;;;;;;7.41;nan;-24024.00;5030162;28;20233;-65
2023/12/15 08:31:26;;;;;;;1.43;1.17;;;;;;;7.24;nan;-24019.19;5029772;28;20219;-65
2023/12/15 08:33:52;;;;;;;1.83;1.50;;;;;;;7.38;nan;-24023.00;5029974;28;20265;-65
2023/12/15 08:36:18;;;;;;;0.90;0.90;;;;;;;7.32;nan;-24021.47;5029943;28;20241;-66
2023/12/15 08:38:43;;;;;;;1.20;1.20;;;;;;;7.13;nan;-24016.06;5030276;28;20176;-66
2023/12/15 08:41:10;;;;;;;1.43;1.33;;;;;;;7.13;nan;-24016.06;5029177;28;20518;-64
2023/12/15 08:43:36;;;;;;;1.70;1.57;;;;;;;7.37;nan;-24022.88;5029331;28;20179;-66
2023/12/15 08:46:02;;;;;;;1.20;1.20;;;;;;;7.17;nan;-24017.06;5030236;28;20183;-65
2023/12/15 08:48:27;;;;;;;2.40;1.50;;;;;;;7.23;nan;-24018.75;5029987;28;20179;-65
2023/12/15 08:50:53;;;;;;;1.17;1.17;;;;;;;7.11;nan;-24015.50;5030100;28;20658;-65
2023/12/15 08:53:19;;;;;;;1.53;1.40;;;;;;;7.11;nan;-24015.50;5030317;28;20207;-66
2023/12/15 08:55:45;;;;;;;1.40;1.30;;;;;;;7.37;nan;-24022.72;5030140;28;20583;-65
2023/12/15 08:58:11;;;;;;;1.10;1.10;;;;;;;7.13;nan;-24016.06;5030131;28;20654;-65
2023/12/15 09:00:37;;;;;;;1.10;1.10;;;;;;;7.01;nan;-24012.81;5030326;28;20237;-65
2023/12/15 09:03:02;;;;;;;1.10;1.10;;;;;;;7.20;nan;-24018.06;5029141;28;20202;-65
2023/12/15 09:05:28;;;;;;;1.40;1.30;;;;;;;7.08;nan;-24014.78;5030149;28;20156;-65
2023/12/15 09:07:54;;;;;;;1.27;1.20;;;;;;;6.90;nan;-24009.69;5033030;28;20209;-65
2023/12/15 09:10:20;;;;;;;1.50;1.40;;;;;;;7.13;nan;-24015.94;5033577;28;20218;-65
2023/12/15 09:12:46;;;;;;;1.20;1.20;;;;;;;7.14;nan;-24016.34;5033447;28;20175;-65
2023/12/15 09:15:12;;;;;;;1.47;1.37;;;;;;;6.87;nan;-24008.69;5033883;28;20225;-65
2023/12/15 09:17:47;;;;;;;1.50;1.37;;;;;;;6.78;nan;-24006.28;5033630;28;20180;-65
2023/12/15 09:20:13;;;;;;;0.90;0.90;;;;;;;6.83;nan;-24007.56;5036623;28;20266;-66
2023/12/15 09:22:40;;;;;;;1.10;1.10;;;;;;;6.71;nan;-24004.16;5033779;28;20221;-66
2023/12/15 09:25:06;;;;;;;1.00;1.00;;;;;;;6.98;nan;-24011.81;5033635;28;20172;-65
2023/12/15 09:27:31;;;;;;;1.53;1.43;;;;;;;6.92;nan;-24010.13;5033462;28;20236;-66
2023/12/15 09:29:57;;;;;;;1.10;1.10;;;;;;;7.09;nan;-24014.94;5033610;28;20175;-64
2023/12/15 09:32:23;;;;;;;1.50;1.40;;;;;;;6.81;nan;-24007.13;5033548;28;20663;-64
2023/12/15 09:34:48;;;;;;;0.90;0.90;;;;;;;6.88;nan;-24009.13;5031828;28;20216;-65
2023/12/15 09:37:13;;;;;;;1.93;1.20;;;;;;;6.97;nan;-24011.66;5033582;28;20286;-65
2023/12/15 09:39:39;;;;;;;1.00;1.00;;;;;;;6.70;nan;-24004.00;5033042;28;20199;-65
2023/12/15 09:42:05;;;;;;;1.10;1.10;;;;;;;6.70;nan;-24004.00;5033768;28;20250;-66
2023/12/15 09:44:31;;;;;;;0.93;0.93;;;;;;;6.75;nan;-24005.44;5032977;28;20634;-64
2023/12/15 09:46:58;;;;;;;1.00;1.00;;;;;;;6.78;nan;-24006.13;5033254;28;20175;-66
2023/12/15 09:49:24;;;;;;;1.17;0.90;;;;;;;6.88;nan;-24008.97;5033043;28;20182;-65
2023/12/15 09:51:51;;;;;;;1.00;1.00;;;;;;;6.69;nan;-24003.72;5032779;28;20179;-65
2023/12/15 09:54:17;;;;;;;1.03;1.03;;;;;;;6.91;nan;-24009.97;5033136;28;20270;-65
2023/12/15 09:56:43;;;;;;;1.37;1.27;;;;;;;6.66;nan;-24002.88;5033248;28;20175;-65
2023/12/15 09:59:09;;;;;;;0.80;0.80;;;;;;;6.92;nan;-24010.25;5033040;28;20196;-67
2023/12/15 10:01:35;;;;;;;1.37;1.27;;;;;;;6.92;nan;-24010.25;5031423;28;20280;-65
2023/12/15 10:04:00;;;;;;;1.00;1.00;;;;;;;6.70;nan;-24004.00;5032780;28;20171;-64
2023/12/15 10:06:25;;;;;;;1.10;1.10;;;;;;;6.61;nan;-24001.59;5032820;28;20188;-64
2023/12/15 10:08:51;;;;;;;1.20;1.10;;;;;;;6.86;nan;-24008.56;5032433;28;20172;-66
2023/12/15 10:11:17;;;;;;;1.10;1.10;;;;;;;6.82;nan;-24007.41;5032382;28;20336;-65
2023/12/15 10:13:43;;;;;;;1.40;1.30;;;;;;;6.74;nan;-24005.00;5032590;28;20797;-64
2023/12/15 10:16:10;;;;;;;1.20;1.20;;;;;;;6.61;nan;-24001.59;5032442;28;20258;-64
2023/12/15 10:18:37;;;;;;;1.00;1.00;;;;;;;6.39;nan;-23995.22;5031749;28;20313;-63
2023/12/15 10:21:04;;;;;;;1.03;1.03;;;;;;;6.67;nan;-24003.16;5034405;28;20202;-64
2023/12/15 10:23:31;;;;;;;1.07;1.07;;;;;;;6.74;nan;-24005.00;5033036;28;20179;-65
2023/12/15 10:26:03;;;;;;;1.10;1.10;;;;;;;6.76;nan;-24005.56;5032804;28;20180;-64
2023/12/15 10:28:39;;;;;;;1.03;1.03;;;;;;;6.78;nan;-24006.13;5032930;28;20218;-64
2023/12/15 10:31:08;;;;;;;1.70;1.23;;;;;;;6.68;nan;-24003.31;5033061;28;20224;-64
2023/12/15 10:33:35;;;;;;;1.13;1.13;;;;;;;6.75;nan;-24005.44;5032542;28;20267;-64
2023/12/15 10:36:01;;;;;;;1.00;1.00;;;;;;;6.71;nan;-24004.16;5031741;28;20182;-65
2023/12/15 10:38:30;;;;;;;1.10;1.10;;;;;;;6.59;nan;-24001.03;5032240;28;20202;-66
2023/12/15 10:40:57;;;;;;;1.00;1.00;;;;;;;6.61;nan;-24001.59;5032189;28;20203;-65
2023/12/15 10:43:23;;;;;;;1.50;1.40;;;;;;;6.48;nan;-23997.75;5032275;28;20262;-64
2023/12/15 10:45:53;;;;;;;1.43;1.10;;;;;;;6.54;nan;-23999.47;5031517;28;20191;-64
2023/12/15 10:48:19;;;;;;;0.97;0.97;;;;;;;6.55;nan;-23999.91;5031293;28;20179;-64
2023/12/15 10:50:45;;;;;;;1.03;1.03;;;;;;;6.50;nan;-23998.34;5032137;28;20210;-65
2023/12/15 10:53:14;;;;;;;0.93;0.93;;;;;;;6.25;nan;-23991.22;5032009;28;20646;-64
2023/12/15 10:55:43;;;;;;;1.10;1.10;;;;;;;6.36;nan;-23994.50;5031936;28;20167;-65
2023/12/15 10:58:11;;;;;;;1.20;1.20;;;;;;;6.24;nan;-23990.94;5031872;28;20221;-65
2023/12/15 11:00:38;;;;;;;1.20;1.20;;;;;;;6.42;nan;-23996.06;5031920;28;20286;-65
2023/12/15 11:03:05;;;;;;;1.40;1.30;;;;;;;6.15;nan;-23988.69;5031703;28;20178;-64
2023/12/15 11:05:32;;;;;;;1.00;1.00;;;;;;;6.19;nan;-23989.69;5030517;28;20233;-64
2023/12/15 11:07:59;;;;;;;1.20;1.20;;;;;;;6.35;nan;-23994.06;5031634;28;20181;-65
2023/12/15 11:10:25;;;;;;;1.10;1.10;;;;;;;6.38;nan;-23994.94;5031354;28;20614;-64
2023/12/15 11:12:52;;;;;;;1.20;1.20;;;;;;;6.29;nan;-23992.50;5031155;28;20187;-64
2023/12/15 11:15:18;;;;;;;1.00;1.00;;;;;;;6.39;nan;-23995.22;5031330;28;20179;-65
2023/12/15 11:17:49;;;;;;;1.00;1.00;;;;;;;6.36;nan;-23994.34;5031469;28;20172;-64
2023/12/15 11:20:20;;;;;;;1.03;1.03;;;;;;;6.11;nan;-23987.41;5030664;28;20210;-63
2023/12/15 11:23:11;;;;;;;1.40;1.30;;;;;;;5.84;nan;-23979.88;5031444;28;20175;-64
2023/12/15 11:25:51;;;;;;;1.00;1.00;;;;;;;5.92;nan;-23982.00;5031392;28;20246;-64
2023/12/15 11:28:18;;;;;;;1.10;1.10;;;;;;;6.10;nan;-23987.13;5031128;28;20555;-64
2023/12/15 11:30:52;;;;;;;1.00;1.00;;;;;;;5.93;nan;-23982.28;5030450;28;20238;-64
2023/12/15 11:33:23;;;;;;;1.03;1.03;;;;;;;5.96;nan;-23983.13;5031249;28;20175;-64
2023/12/15 11:35:52;;;;;;;1.10;1.10;;;;;;;5.96;nan;-23983.28;5030660;28;20250;-64
2023/12/15 11:38:20;;;;;;;1.00;1.00;;;;;;;5.81;nan;-23978.88;5031055;28;20175;-65
2023/12/15 11:40:48;;;;;;;0.90;0.90;;;;;;;6.00;nan;-23984.28;5031165;28;20566;-64
2023/12/15 11:43:14;;;;;;;1.13;1.13;;;;;;;5.93;nan;-23982.44;5030940;28;20258;-64
2023/12/15 11:45:41;;;;;;;0.97;0.97;;;;;;;6.12;nan;-23987.81;5031055;28;20167;-66